createdAt,value
2022-10-06T00:00:19.875Z,51.212212
2022-10-06T00:01:19.902Z,51.212234
2022-10-06T00:02:19.896Z,51.212105
2022-10-06T00:03:19.810Z,51.212135
2022-10-06T00:04:19.806Z,51.212116
2022-10-06T00:05:19.830Z,51.212086
2022-10-06T00:06:19.826Z,51.212101
2022-10-06T00:07:19.855Z,51.212173
2022-10-06T00:08:19.812Z,51.212196
2022-10-06T00:09:19.783Z,51.212227
2022-10-06T00:10:19.817Z,51.212341
2022-10-06T00:11:19.781Z,51.212265
2022-10-06T00:12:20.763Z,51.212185
2022-10-06T00:13:19.778Z,51.212040
2022-10-06T00:14:19.747Z,51.212025
2022-10-06T00:15:19.752Z,51.212090
2022-10-06T00:16:19.807Z,51.212074
2022-10-06T00:17:19.763Z,51.212074
2022-10-06T00:18:19.724Z,51.212185
2022-10-06T00:19:19.745Z,51.212223
2022-10-06T00:20:19.697Z,51.212154
2022-10-06T00:21:19.726Z,51.212013
2022-10-06T00:22:19.679Z,51.212013
2022-10-06T00:23:19.699Z,51.211922
2022-10-06T00:24:19.678Z,51.211956
2022-10-06T00:25:19.679Z,51.212059
2022-10-06T00:26:19.687Z,51.212051
2022-10-06T00:27:19.654Z,51.212002
2022-10-06T00:28:19.694Z,51.211971
2022-10-06T00:29:19.642Z,51.212025
2022-10-06T00:30:19.668Z,51.212238
2022-10-06T00:31:19.967Z,51.212086
2022-10-06T00:32:19.646Z,51.212093
2022-10-06T00:33:19.616Z,51.212101
2022-10-06T00:34:19.610Z,51.212151
2022-10-06T00:35:19.594Z,51.212067
2022-10-06T00:36:19.595Z,51.211887
2022-10-06T00:37:19.591Z,51.211933
2022-10-06T00:38:19.595Z,51.211796
2022-10-06T00:39:19.562Z,51.211975
2022-10-06T00:40:19.585Z,51.212059
2022-10-06T00:41:19.559Z,51.212101
2022-10-06T00:42:19.577Z,51.212208
2022-10-06T00:43:19.542Z,51.212215
2022-10-06T00:44:19.536Z,51.211914
2022-10-06T00:45:19.544Z,51.211815
2022-10-06T00:46:19.629Z,51.212105
2022-10-06T00:47:19.525Z,51.212067
2022-10-06T00:48:19.541Z,51.211960
2022-10-06T00:49:19.501Z,51.212044
2022-10-06T00:50:19.510Z,51.212063
2022-10-06T00:51:19.490Z,51.212112
2022-10-06T00:52:19.497Z,51.212132
2022-10-06T00:53:19.475Z,51.212139
2022-10-06T00:54:19.469Z,51.212097
2022-10-06T00:55:19.474Z,51.212105
2022-10-06T00:56:19.457Z,51.212185
2022-10-06T00:57:19.521Z,51.212223
2022-10-06T00:58:19.492Z,51.212112
2022-10-06T00:59:19.449Z,51.212105
2022-10-06T01:00:19.485Z,51.212200
2022-10-06T01:01:19.480Z,51.212238
2022-10-06T01:02:20.518Z,51.212158
2022-10-06T01:03:19.409Z,51.212048
2022-10-06T01:04:19.430Z,51.212029
2022-10-06T01:05:19.429Z,51.212078
2022-10-06T01:06:19.437Z,51.212040
2022-10-06T01:07:19.387Z,51.212036
2022-10-06T01:08:19.413Z,51.211933
2022-10-06T01:09:19.426Z,51.211998
2022-10-06T01:10:19.401Z,51.211994
2022-10-06T01:11:19.360Z,51.211952
2022-10-06T01:12:19.368Z,51.212067
2022-10-06T01:13:19.345Z,51.212101
2022-10-06T01:14:19.384Z,51.212032
2022-10-06T01:15:19.342Z,51.212105
2022-10-06T01:16:19.417Z,51.212090
2022-10-06T01:17:19.308Z,51.212078
2022-10-06T01:18:19.304Z,51.212074
2022-10-06T01:19:19.310Z,51.212032
2022-10-06T01:20:19.295Z,51.212067
2022-10-06T01:21:19.327Z,51.212006
2022-10-06T01:22:19.283Z,51.211987
2022-10-06T01:23:19.294Z,51.211967
2022-10-06T01:24:19.263Z,51.212029
2022-10-06T01:25:19.262Z,51.212078
2022-10-06T01:26:19.259Z,51.212128
2022-10-06T01:27:19.243Z,51.212070
2022-10-06T01:28:19.286Z,51.212048
2022-10-06T01:29:19.227Z,51.212055
2022-10-06T01:30:19.247Z,51.212078
2022-10-06T01:31:19.310Z,51.212051
2022-10-06T01:32:19.207Z,51.212029
2022-10-06T01:33:19.219Z,51.212029
2022-10-06T01:34:19.194Z,51.212124
2022-10-06T01:35:19.181Z,51.212059
2022-10-06T01:36:19.195Z,51.212021
2022-10-06T01:37:19.183Z,51.212013
2022-10-06T01:38:19.176Z,51.212040
2022-10-06T01:39:19.167Z,51.211975
2022-10-06T01:40:19.177Z,51.211990
2022-10-06T01:41:19.164Z,51.212025
2022-10-06T01:42:19.166Z,51.212032
2022-10-06T01:43:19.144Z,51.212063
2022-10-06T01:44:19.135Z,51.212093
2022-10-06T01:45:19.138Z,51.211987
2022-10-06T01:46:19.230Z,51.212063
2022-10-06T01:47:19.125Z,51.212097
2022-10-06T01:48:19.107Z,51.212059
2022-10-06T01:49:19.114Z,51.212017
2022-10-06T01:50:19.091Z,51.212093
2022-10-06T01:51:19.111Z,51.212086
2022-10-06T01:52:19.108Z,51.212097
2022-10-06T01:53:19.077Z,51.212177
2022-10-06T01:54:19.100Z,51.212139
2022-10-06T01:55:19.075Z,51.212032
2022-10-06T01:56:19.052Z,51.212051
2022-10-06T01:57:19.059Z,51.212109
2022-10-06T01:58:19.036Z,51.212074
2022-10-06T01:59:19.097Z,51.212128
2022-10-06T02:00:19.012Z,51.212143
2022-10-06T02:01:19.095Z,51.212215
2022-10-06T02:02:19.027Z,51.212231
2022-10-06T02:03:19.029Z,51.212193
2022-10-06T02:04:19.074Z,51.212250
2022-10-06T02:05:18.992Z,51.212151
2022-10-06T02:06:19.044Z,51.212181
2022-10-06T02:07:18.971Z,51.212147
2022-10-06T02:08:18.995Z,51.212196
2022-10-06T02:09:18.971Z,51.211937
2022-10-06T02:10:18.968Z,51.212040
2022-10-06T02:11:18.951Z,51.212105
2022-10-06T02:12:18.948Z,51.212120
2022-10-06T02:13:18.963Z,51.211933
2022-10-06T02:14:18.952Z,51.211967
2022-10-06T02:15:18.929Z,51.212166
2022-10-06T02:16:18.973Z,51.212135
2022-10-06T02:17:18.928Z,51.212105
2022-10-06T02:18:18.917Z,51.212086
2022-10-06T02:19:18.907Z,51.212231
2022-10-06T02:20:18.900Z,51.212261
2022-10-06T02:21:18.888Z,51.212299
2022-10-06T02:22:18.906Z,51.212261
2022-10-06T02:23:18.935Z,51.212185
2022-10-06T02:24:18.880Z,51.212135
2022-10-06T02:25:18.861Z,51.212082
2022-10-06T02:26:18.860Z,51.211960
2022-10-06T02:27:18.835Z,51.212074
2022-10-06T02:28:18.915Z,51.212029
2022-10-06T02:29:18.847Z,51.212250
2022-10-06T02:30:18.832Z,51.212166
2022-10-06T02:31:18.904Z,51.212185
2022-10-06T02:32:19.783Z,51.212135
2022-10-06T02:33:18.810Z,51.212166
2022-10-06T02:34:18.814Z,51.212193
2022-10-06T02:35:18.807Z,51.212204
2022-10-06T02:36:19.315Z,51.212143
2022-10-06T02:37:18.780Z,51.212032
2022-10-06T02:38:18.775Z,51.212078
2022-10-06T02:39:18.758Z,51.212128
2022-10-06T02:40:18.775Z,51.212219
2022-10-06T02:41:18.759Z,51.212162
2022-10-06T02:42:19.288Z,51.212105
2022-10-06T02:43:18.752Z,51.212177
2022-10-06T02:44:18.752Z,51.212189
2022-10-06T02:45:18.747Z,51.212177
2022-10-06T02:46:18.780Z,51.212173
2022-10-06T02:47:18.721Z,51.212154
2022-10-06T02:48:18.719Z,51.212101
2022-10-06T02:49:18.723Z,51.212139
2022-10-06T02:50:18.739Z,51.212109
2022-10-06T02:51:18.726Z,51.212189
2022-10-06T02:52:18.713Z,51.212147
2022-10-06T02:53:18.686Z,51.212151
2022-10-06T02:54:18.693Z,51.212189
2022-10-06T02:55:18.665Z,51.212223
2022-10-06T02:56:18.697Z,51.212261
2022-10-06T02:57:18.682Z,51.212250
2022-10-06T02:58:18.665Z,51.212093
2022-10-06T02:59:18.689Z,51.212044
2022-10-06T03:00:18.638Z,51.212234
2022-10-06T03:01:18.710Z,51.212246
2022-10-06T03:02:18.790Z,51.212193
2022-10-06T03:03:18.656Z,51.212196
2022-10-06T03:04:18.620Z,51.212200
2022-10-06T03:05:18.637Z,51.212269
2022-10-06T03:06:18.610Z,51.212242
2022-10-06T03:07:18.609Z,51.212090
2022-10-06T03:08:18.606Z,51.212223
2022-10-06T03:09:18.588Z,51.212177
2022-10-06T03:10:18.577Z,51.212421
2022-10-06T03:11:18.613Z,51.212040
2022-10-06T03:12:18.608Z,51.212147
2022-10-06T03:13:18.573Z,51.212128
2022-10-06T03:14:21.907Z,51.212238
2022-10-06T03:15:19.552Z,51.212185
2022-10-06T03:16:18.603Z,51.212212
2022-10-06T03:17:18.573Z,51.212208
2022-10-06T03:18:18.541Z,51.212181
2022-10-06T03:19:18.529Z,51.212265
2022-10-06T03:20:18.518Z,51.212193
2022-10-06T03:21:18.532Z,51.212177
2022-10-06T03:22:18.520Z,51.212166
2022-10-06T03:23:18.505Z,51.212166
2022-10-06T03:24:18.491Z,51.212173
2022-10-06T03:25:18.526Z,51.212181
2022-10-06T03:26:18.511Z,51.212151
2022-10-06T03:27:18.488Z,51.212120
2022-10-06T03:28:18.530Z,51.212151
2022-10-06T03:29:18.467Z,51.212154
2022-10-06T03:30:18.458Z,51.212177
2022-10-06T03:31:18.473Z,51.212193
2022-10-06T03:32:18.474Z,51.212193
2022-10-06T03:33:18.447Z,51.212162
2022-10-06T03:34:18.455Z,51.212112
2022-10-06T03:35:18.438Z,51.212120
2022-10-06T03:36:18.448Z,51.212158
2022-10-06T03:37:18.450Z,51.212143
2022-10-06T03:38:18.426Z,51.212208
2022-10-06T03:39:18.395Z,51.212120
2022-10-06T03:40:18.404Z,51.212132
2022-10-06T03:41:18.399Z,51.212109
2022-10-06T03:42:18.380Z,51.212139
2022-10-06T03:43:18.541Z,51.212105
2022-10-06T03:44:18.384Z,51.212139
2022-10-06T03:45:18.383Z,51.212185
2022-10-06T03:46:18.426Z,51.212048
2022-10-06T03:47:18.375Z,51.212090
2022-10-06T03:48:18.360Z,51.212151
2022-10-06T03:49:18.351Z,51.212135
2022-10-06T03:50:18.343Z,51.212040
2022-10-06T03:51:18.416Z,51.212196
2022-10-06T03:52:21.250Z,51.212101
2022-10-06T03:53:19.328Z,51.212170
2022-10-06T03:54:18.334Z,51.212154
2022-10-06T03:55:18.321Z,51.212158
2022-10-06T03:56:18.298Z,51.212074
2022-10-06T03:57:18.306Z,51.212078
2022-10-06T03:58:18.283Z,51.212204
2022-10-06T03:59:18.283Z,51.212177
2022-10-06T04:00:18.294Z,51.212181
2022-10-06T04:01:21.097Z,51.212162
2022-10-06T04:02:20.324Z,51.212090
2022-10-06T04:03:18.261Z,51.212147
2022-10-06T04:04:18.247Z,51.212070
2022-10-06T04:05:18.271Z,51.212067
2022-10-06T04:06:18.257Z,51.212132
2022-10-06T04:07:18.254Z,51.212162
2022-10-06T04:08:18.219Z,51.212139
2022-10-06T04:09:18.233Z,51.212170
2022-10-06T04:10:18.236Z,51.212215
2022-10-06T04:11:18.225Z,51.212227
2022-10-06T04:12:18.204Z,51.212231
2022-10-06T04:13:18.200Z,51.212173
2022-10-06T04:14:18.197Z,51.212109
2022-10-06T04:15:18.196Z,51.212196
2022-10-06T04:16:18.221Z,51.212227
2022-10-06T04:17:18.192Z,51.212337
2022-10-06T04:18:18.160Z,51.212189
2022-10-06T04:19:18.160Z,51.212181
2022-10-06T04:20:18.152Z,51.212250
2022-10-06T04:21:18.145Z,51.212387
2022-10-06T04:22:18.160Z,51.212273
2022-10-06T04:23:18.181Z,51.212219
2022-10-06T04:24:18.119Z,51.212223
2022-10-06T04:25:18.125Z,51.212208
2022-10-06T04:26:18.150Z,51.212177
2022-10-06T04:27:18.124Z,51.212269
2022-10-06T04:28:18.157Z,51.212257
2022-10-06T04:29:18.102Z,51.212250
2022-10-06T04:30:18.133Z,51.212261
2022-10-06T04:31:18.184Z,51.212265
2022-10-06T04:32:18.105Z,51.212414
2022-10-06T04:33:18.074Z,51.212082
2022-10-06T04:34:18.062Z,51.212170
2022-10-06T04:35:18.058Z,51.212189
2022-10-06T04:36:18.072Z,51.212238
2022-10-06T04:37:18.058Z,51.212254
2022-10-06T04:38:18.133Z,51.212273
2022-10-06T04:39:18.039Z,51.212173
2022-10-06T04:40:18.047Z,51.212212
2022-10-06T04:41:18.050Z,51.212246
2022-10-06T04:42:18.035Z,51.212284
2022-10-06T04:43:18.024Z,51.212322
2022-10-06T04:44:18.047Z,51.212231
2022-10-06T04:45:18.002Z,51.212212
2022-10-06T04:46:41.455Z,51.212154
2022-10-06T04:47:19.993Z,51.212147
2022-10-06T04:48:19.010Z,51.212162
2022-10-06T04:49:20.302Z,51.212223
2022-10-06T04:50:19.020Z,51.212242
2022-10-06T04:51:17.968Z,51.212200
2022-10-06T04:52:17.957Z,51.212181
2022-10-06T04:53:17.980Z,51.212154
2022-10-06T04:54:18.002Z,51.212139
2022-10-06T04:55:19.412Z,51.212120
2022-10-06T04:56:17.921Z,51.212093
2022-10-06T04:57:17.973Z,51.212097
2022-10-06T04:58:17.989Z,51.212032
2022-10-06T04:59:17.948Z,51.212166
2022-10-06T05:00:17.912Z,51.212177
2022-10-06T05:01:17.938Z,51.212067
2022-10-06T05:02:18.011Z,51.212078
2022-10-06T05:03:17.914Z,51.212132
2022-10-06T05:04:17.876Z,51.212124
2022-10-06T05:05:17.959Z,51.211990
2022-10-06T05:06:17.879Z,51.212193
2022-10-06T05:07:17.887Z,51.212086
2022-10-06T05:08:17.923Z,51.212196
2022-10-06T05:09:17.870Z,51.212173
2022-10-06T05:10:17.851Z,51.212154
2022-10-06T05:11:20.329Z,51.211937
2022-10-06T05:12:18.854Z,51.212006
2022-10-06T05:13:17.828Z,51.211975
2022-10-06T05:14:18.840Z,51.211987
2022-10-06T05:15:17.844Z,51.212009
2022-10-06T05:16:17.853Z,51.211971
2022-10-06T05:17:17.804Z,51.211987
2022-10-06T05:18:17.835Z,51.211971
2022-10-06T05:19:17.778Z,51.212013
2022-10-06T05:20:17.870Z,51.211971
2022-10-06T05:21:17.769Z,51.212124
2022-10-06T05:22:17.805Z,51.212059
2022-10-06T05:23:17.774Z,51.212078
2022-10-06T05:24:17.797Z,51.212029
2022-10-06T05:25:17.774Z,51.212093
2022-10-06T05:26:17.758Z,51.212055
2022-10-06T05:27:17.769Z,51.212063
2022-10-06T05:28:17.820Z,51.212234
2022-10-06T05:29:17.731Z,51.212414
2022-10-06T05:30:17.717Z,51.212139
2022-10-06T05:31:17.747Z,51.212029
2022-10-06T05:32:17.745Z,51.211971
2022-10-06T05:33:17.689Z,51.212173
2022-10-06T05:34:17.670Z,51.212231
2022-10-06T05:35:18.682Z,51.212029
2022-10-06T05:36:17.693Z,51.212124
2022-10-06T05:37:17.745Z,51.212139
2022-10-06T05:38:17.662Z,51.211716
2022-10-06T05:39:17.651Z,51.211811
2022-10-06T05:40:17.644Z,51.211952
2022-10-06T05:41:17.664Z,51.211987
2022-10-06T05:42:17.659Z,51.212166
2022-10-06T05:43:17.627Z,51.212151
2022-10-06T05:44:17.615Z,51.212158
2022-10-06T05:45:17.647Z,51.212116
2022-10-06T05:46:17.780Z,51.212070
2022-10-06T05:47:17.618Z,51.212002
2022-10-06T05:48:17.612Z,51.212009
2022-10-06T05:49:17.597Z,51.211918
2022-10-06T05:50:19.504Z,51.211948
2022-10-06T05:51:17.573Z,51.211979
2022-10-06T05:52:17.680Z,51.211998
2022-10-06T05:53:17.550Z,51.212002
2022-10-06T05:54:17.582Z,51.211807
2022-10-06T05:55:17.558Z,51.211998
2022-10-06T05:56:17.555Z,51.212086
2022-10-06T05:57:17.533Z,51.212074
2022-10-06T05:58:19.302Z,51.212067
2022-10-06T05:59:17.535Z,51.212017
2022-10-06T06:00:18.544Z,51.212105
2022-10-06T06:01:17.604Z,51.211998
2022-10-06T06:02:17.649Z,51.212036
2022-10-06T06:03:17.522Z,51.212067
2022-10-06T06:04:17.492Z,51.212101
2022-10-06T06:05:17.499Z,51.212124
2022-10-06T06:06:17.474Z,51.212158
2022-10-06T06:07:17.486Z,51.212181
2022-10-06T06:08:17.514Z,51.212223
2022-10-06T06:09:17.518Z,51.212238
2022-10-06T06:10:17.448Z,51.212070
2022-10-06T06:11:17.490Z,51.212120
2022-10-06T06:12:17.445Z,51.212132
2022-10-06T06:13:17.434Z,51.212147
2022-10-06T06:14:17.427Z,51.212151
2022-10-06T06:15:17.414Z,51.212193
2022-10-06T06:16:17.457Z,51.212189
2022-10-06T06:17:17.426Z,51.212219
2022-10-06T06:18:17.403Z,51.212242
2022-10-06T06:19:17.377Z,51.212242
2022-10-06T06:20:17.366Z,51.212185
2022-10-06T06:21:18.394Z,51.212189
2022-10-06T06:22:17.395Z,51.212208
2022-10-06T06:23:17.395Z,51.212124
2022-10-06T06:24:17.361Z,51.212223
2022-10-06T06:25:17.350Z,51.212223
2022-10-06T06:26:17.374Z,51.212074
2022-10-06T06:27:17.355Z,51.212090
2022-10-06T06:28:17.448Z,51.212097
2022-10-06T06:29:17.323Z,51.212128
2022-10-06T06:30:17.315Z,51.212051
2022-10-06T06:31:20.321Z,51.212067
2022-10-06T06:32:18.303Z,51.212101
2022-10-06T06:33:17.294Z,51.212151
2022-10-06T06:34:17.306Z,51.212143
2022-10-06T06:35:17.308Z,51.212162
2022-10-06T06:36:17.279Z,51.212116
2022-10-06T06:37:17.294Z,51.212093
2022-10-06T06:38:18.258Z,51.212105
2022-10-06T06:39:17.258Z,51.212090
2022-10-06T06:40:17.250Z,51.212101
2022-10-06T06:41:17.245Z,51.211967
2022-10-06T06:42:17.247Z,51.211906
2022-10-06T06:43:17.244Z,51.212105
2022-10-06T06:44:17.226Z,51.212193
2022-10-06T06:45:17.245Z,51.212036
2022-10-06T06:46:17.322Z,51.212147
2022-10-06T06:47:17.221Z,51.212231
2022-10-06T06:48:17.214Z,51.212036
2022-10-06T06:49:17.210Z,51.212044
2022-10-06T06:50:17.194Z,51.212166
2022-10-06T06:51:17.199Z,51.211994
2022-10-06T06:52:17.203Z,51.211933
2022-10-06T06:53:17.175Z,51.212128
2022-10-06T06:54:17.150Z,51.212231
2022-10-06T06:55:17.162Z,51.212101
2022-10-06T06:56:50.143Z,51.212036
2022-10-06T06:57:17.122Z,51.212044
2022-10-06T06:58:17.130Z,51.212078
2022-10-06T06:59:17.166Z,51.212070
2022-10-06T07:00:17.135Z,51.211926
2022-10-06T07:01:17.146Z,51.212112
2022-10-06T07:02:17.199Z,51.212067
2022-10-06T07:03:32.795Z,51.212189
2022-10-06T07:04:19.087Z,51.212162
2022-10-06T07:05:17.090Z,51.212025
2022-10-06T07:06:17.066Z,51.212086
2022-10-06T07:07:17.090Z,51.212139
2022-10-06T07:08:17.068Z,51.212395
2022-10-06T07:09:17.828Z,51.212460
2022-10-06T07:10:17.052Z,51.212044
2022-10-06T07:11:17.044Z,51.211994
2022-10-06T07:12:17.031Z,51.212090
2022-10-06T07:13:17.504Z,51.212143
2022-10-06T07:14:18.060Z,51.212093
2022-10-06T07:15:17.088Z,51.212177
2022-10-06T07:16:17.061Z,51.212109
2022-10-06T07:17:16.993Z,51.212200
2022-10-06T07:18:17.037Z,51.212029
2022-10-06T07:19:20.092Z,51.212006
2022-10-06T07:20:18.815Z,51.212048
2022-10-06T07:21:16.976Z,51.212070
2022-10-06T07:22:16.963Z,51.211971
2022-10-06T07:23:16.976Z,51.212021
2022-10-06T07:24:16.965Z,51.211971
2022-10-06T07:25:19.449Z,51.211937
2022-10-06T07:26:16.976Z,51.212048
2022-10-06T07:27:16.925Z,51.211987
2022-10-06T07:28:17.036Z,51.212017
2022-10-06T07:29:17.115Z,51.212078
2022-10-06T07:30:16.935Z,51.212093
2022-10-06T07:31:16.953Z,51.212082
2022-10-06T07:32:16.901Z,51.212135
2022-10-06T07:33:16.912Z,51.212120
2022-10-06T07:34:16.882Z,51.211895
2022-10-06T07:35:16.945Z,51.212086
2022-10-06T07:36:16.891Z,51.212051
2022-10-06T07:37:16.866Z,51.211975
2022-10-06T07:38:16.890Z,51.212059
2022-10-06T07:39:16.879Z,51.211990
2022-10-06T07:40:16.879Z,51.212070
2022-10-06T07:41:19.821Z,51.212109
2022-10-06T07:42:17.848Z,51.212093
2022-10-06T07:43:16.925Z,51.211979
2022-10-06T07:44:16.820Z,51.211880
2022-10-06T07:45:16.876Z,51.212009
2022-10-06T07:46:16.898Z,51.212101
2022-10-06T07:47:16.819Z,51.212128
2022-10-06T07:48:16.807Z,51.212128
2022-10-06T07:49:16.815Z,51.212132
2022-10-06T07:50:16.807Z,51.212112
2022-10-06T07:51:16.915Z,51.212097
2022-10-06T07:52:16.766Z,51.212120
2022-10-06T07:53:16.753Z,51.212139
2022-10-06T07:54:16.754Z,51.212124
2022-10-06T07:55:16.782Z,51.212135
2022-10-06T07:56:16.756Z,51.212173
2022-10-06T07:57:16.783Z,51.212170
2022-10-06T07:58:17.719Z,51.212173
2022-10-06T07:59:19.312Z,51.212017
2022-10-06T08:00:16.806Z,51.212059
2022-10-06T08:01:16.775Z,51.212086
2022-10-06T08:02:16.735Z,51.212093
2022-10-06T08:03:17.007Z,51.212063
2022-10-06T08:04:16.727Z,51.212101
2022-10-06T08:05:16.675Z,51.211998
2022-10-06T08:06:16.674Z,51.212154
2022-10-06T08:07:16.658Z,51.212063
2022-10-06T08:08:16.870Z,51.212059
2022-10-06T08:09:16.675Z,51.212158
2022-10-06T08:10:16.644Z,51.212181
2022-10-06T08:11:16.656Z,51.212292
2022-10-06T08:12:16.620Z,51.212284
2022-10-06T08:13:16.633Z,51.212242
2022-10-06T08:14:16.609Z,51.212208
2022-10-06T08:15:16.905Z,51.212124
2022-10-06T08:16:16.635Z,51.212105
2022-10-06T08:17:16.589Z,51.212101
2022-10-06T08:18:33.779Z,51.212162
2022-10-06T08:19:18.599Z,51.212128
2022-10-06T08:20:16.646Z,51.212093
2022-10-06T08:21:16.612Z,51.212132
2022-10-06T08:22:16.601Z,51.212055
2022-10-06T08:23:16.702Z,51.212158
2022-10-06T08:24:16.550Z,51.212196
2022-10-06T08:25:16.981Z,51.212257
2022-10-06T08:26:16.565Z,51.212196
2022-10-06T08:27:16.518Z,51.212147
2022-10-06T08:28:16.630Z,51.212025
2022-10-06T08:29:16.582Z,51.211861
2022-10-06T08:30:16.518Z,51.212025
2022-10-06T08:31:16.568Z,51.212132
2022-10-06T08:32:16.513Z,51.212032
2022-10-06T08:33:19.051Z,51.212055
2022-10-06T08:34:16.477Z,51.211922
2022-10-06T08:35:16.514Z,51.212074
2022-10-06T08:36:16.471Z,51.212055
2022-10-06T08:37:20.113Z,51.212048
2022-10-06T08:38:17.478Z,51.212040
2022-10-06T08:39:16.465Z,51.212101
2022-10-06T08:40:16.472Z,51.212193
2022-10-06T08:41:16.577Z,51.212124
2022-10-06T08:42:16.440Z,51.212185
2022-10-06T08:43:16.443Z,51.212143
2022-10-06T08:44:16.469Z,51.212166
2022-10-06T08:45:16.476Z,51.212116
2022-10-06T08:46:18.816Z,51.212017
2022-10-06T08:47:16.556Z,51.212017
2022-10-06T08:48:16.408Z,51.212009
2022-10-06T08:49:16.395Z,51.211910
2022-10-06T08:50:16.415Z,51.211971
2022-10-06T08:51:16.451Z,51.212009
2022-10-06T08:52:16.382Z,51.212040
2022-10-06T08:53:16.485Z,51.212063
2022-10-06T08:54:16.438Z,51.212036
2022-10-06T08:55:16.361Z,51.211948
2022-10-06T08:56:16.348Z,51.211983
2022-10-06T08:57:16.358Z,51.212036
2022-10-06T08:58:16.335Z,51.212051
2022-10-06T08:59:16.396Z,51.212090
2022-10-06T09:00:19.622Z,51.212021
2022-10-06T09:01:18.355Z,51.211933
2022-10-06T09:02:16.393Z,51.211731
2022-10-06T09:03:16.328Z,51.211887
2022-10-06T09:04:16.428Z,51.211967
2022-10-06T09:05:16.356Z,51.212257
2022-10-06T09:06:16.289Z,51.212078
2022-10-06T09:07:16.347Z,51.212116
2022-10-06T09:08:16.375Z,51.212116
2022-10-06T09:09:16.266Z,51.212078
2022-10-06T09:10:16.303Z,51.212154
2022-10-06T09:11:16.267Z,51.212120
2022-10-06T09:12:16.291Z,51.212204
2022-10-06T09:13:20.969Z,51.212231
2022-10-06T09:14:18.259Z,51.212219
2022-10-06T09:15:16.250Z,51.211960
2022-10-06T09:16:16.310Z,51.211998
2022-10-06T09:17:16.238Z,51.212055
2022-10-06T09:18:16.519Z,51.212238
2022-10-06T09:19:16.459Z,51.212246
2022-10-06T09:20:16.221Z,51.212234
2022-10-06T09:21:16.328Z,51.212093
2022-10-06T09:22:16.240Z,51.212097
2022-10-06T09:23:16.216Z,51.212158
2022-10-06T09:24:16.224Z,51.212135
2022-10-06T09:25:16.185Z,51.212029
2022-10-06T09:26:16.169Z,51.212135
2022-10-06T09:27:16.180Z,51.212132
2022-10-06T09:28:16.250Z,51.212059
2022-10-06T09:29:16.152Z,51.212116
2022-10-06T09:30:16.169Z,51.212105
2022-10-06T09:31:16.234Z,51.211979
2022-10-06T09:32:16.152Z,51.212128
2022-10-06T09:33:16.147Z,51.212223
2022-10-06T09:34:16.144Z,51.212322
2022-10-06T09:35:16.111Z,51.212372
2022-10-06T09:36:16.108Z,51.212296
2022-10-06T09:37:16.155Z,51.212223
2022-10-06T09:38:16.099Z,51.212242
2022-10-06T09:39:16.111Z,51.212193
2022-10-06T09:40:16.116Z,51.212219
2022-10-06T09:41:16.097Z,51.212223
2022-10-06T09:42:16.090Z,51.212097
2022-10-06T09:43:16.078Z,51.212105
2022-10-06T09:44:16.070Z,51.212109
2022-10-06T09:45:16.160Z,51.212132
2022-10-06T09:46:16.077Z,51.212055
2022-10-06T09:47:16.046Z,51.212013
2022-10-06T09:48:16.036Z,51.212017
2022-10-06T09:49:16.050Z,51.211933
2022-10-06T09:50:16.065Z,51.212063
2022-10-06T09:51:16.037Z,51.212132
2022-10-06T09:52:16.008Z,51.212135
2022-10-06T09:53:16.040Z,51.212170
2022-10-06T09:54:16.000Z,51.212196
2022-10-06T09:55:16.008Z,51.212070
2022-10-06T09:56:16.000Z,51.212074
2022-10-06T09:57:15.977Z,51.212162
2022-10-06T09:58:15.979Z,51.212151
2022-10-06T09:59:15.984Z,51.212166
2022-10-06T10:00:16.055Z,51.212124
2022-10-06T10:01:16.076Z,51.212086
2022-10-06T10:02:15.960Z,51.212158
2022-10-06T10:03:16.068Z,51.212109
2022-10-06T10:04:20.686Z,51.212112
2022-10-06T10:05:16.983Z,51.212112
2022-10-06T10:06:15.956Z,51.212143
2022-10-06T10:07:15.930Z,51.212177
2022-10-06T10:08:15.955Z,51.212238
2022-10-06T10:09:17.850Z,51.212185
2022-10-06T10:10:15.959Z,51.212120
2022-10-06T10:11:15.920Z,51.212112
2022-10-06T10:12:15.931Z,51.212166
2022-10-06T10:13:15.952Z,51.212135
2022-10-06T10:14:15.935Z,51.212219
2022-10-06T10:15:15.896Z,51.212090
2022-10-06T10:16:15.953Z,51.212086
2022-10-06T10:17:15.917Z,51.212097
2022-10-06T10:18:15.918Z,51.212234
2022-10-06T10:19:15.883Z,51.212212
2022-10-06T10:20:15.894Z,51.212227
2022-10-06T10:21:15.870Z,51.212219
2022-10-06T10:22:15.903Z,51.212193
2022-10-06T10:23:15.870Z,51.212223
2022-10-06T10:24:15.854Z,51.212132
2022-10-06T10:25:15.838Z,51.212135
2022-10-06T10:26:15.838Z,51.212128
2022-10-06T10:27:15.844Z,51.212189
2022-10-06T10:28:15.912Z,51.212208
2022-10-06T10:29:15.883Z,51.212212
2022-10-06T10:30:15.830Z,51.212166
2022-10-06T10:31:15.852Z,51.212189
2022-10-06T10:32:15.803Z,51.212257
2022-10-06T10:33:15.876Z,51.212276
2022-10-06T10:34:25.221Z,51.212257
2022-10-06T10:35:17.806Z,51.212238
2022-10-06T10:36:15.801Z,51.212276
2022-10-06T10:37:15.791Z,51.212296
2022-10-06T10:38:15.830Z,51.212326
2022-10-06T10:39:15.789Z,51.212265
2022-10-06T10:40:15.782Z,51.212261
2022-10-06T10:41:16.376Z,51.212254
2022-10-06T10:42:15.764Z,51.212280
2022-10-06T10:43:15.775Z,51.212135
2022-10-06T10:44:15.747Z,51.212379
2022-10-06T10:45:15.786Z,51.212326
2022-10-06T10:46:15.776Z,51.212334
2022-10-06T10:47:15.778Z,51.212326
2022-10-06T10:48:15.737Z,51.212322
2022-10-06T10:49:15.756Z,51.212212
2022-10-06T10:50:15.776Z,51.212296
2022-10-06T10:51:16.380Z,51.212284
2022-10-06T10:52:15.704Z,51.212334
2022-10-06T10:53:15.749Z,51.212242
2022-10-06T10:54:15.720Z,51.212196
2022-10-06T10:55:15.692Z,51.212177
2022-10-06T10:56:15.744Z,51.212219
2022-10-06T10:57:15.725Z,51.212200
2022-10-06T10:58:16.348Z,51.212200
2022-10-06T10:59:15.684Z,51.212112
2022-10-06T11:00:15.669Z,51.212147
2022-10-06T11:01:15.803Z,51.212219
2022-10-06T11:02:15.701Z,51.212254
2022-10-06T11:03:15.661Z,51.212223
2022-10-06T11:04:15.660Z,51.212181
2022-10-06T11:05:16.664Z,51.212185
2022-10-06T11:06:15.680Z,51.212269
2022-10-06T11:07:15.653Z,51.212265
2022-10-06T11:08:15.681Z,51.212219
2022-10-06T11:09:15.664Z,51.211994
2022-10-06T11:10:15.752Z,51.211960
2022-10-06T11:11:15.685Z,51.211811
2022-10-06T11:12:15.637Z,51.211830
2022-10-06T11:13:15.645Z,51.211910
2022-10-06T11:14:15.710Z,51.212013
2022-10-06T11:15:15.649Z,51.212086
2022-10-06T11:16:15.638Z,51.212189
2022-10-06T11:17:15.600Z,51.212296
2022-10-06T11:18:19.455Z,51.212200
2022-10-06T11:19:16.653Z,51.212154
2022-10-06T11:20:15.596Z,51.212135
2022-10-06T11:21:15.591Z,51.212090
2022-10-06T11:22:15.572Z,51.212086
2022-10-06T11:23:15.572Z,51.212078
2022-10-06T11:24:15.609Z,51.212265